Time;durP1;ratioP1;P1;durP2;ratioP2;P2;SDS_P1;SDS_P2;PMS_P1;PMS_P2;Temp;Humidity;BMP_temperature;BMP_pressure;BME280_temperature;BME280_humidity;BME280_pressure;Samples;Min_cycle;Max_cycle;Signal;HPM_P1;HPM_P2
2022/03/05 00:00:51;;;;;;;21.37;12.97;;;;;;;;;;4980714;28;20231;-69
2022/03/05 00:03:17;;;;;;;21.97;12.60;;;;;;;;;;4981754;28;20247;-68
2022/03/05 00:05:43;;;;;;;19.57;12.30;;;;;;;;;;4983604;28;21019;-68
2022/03/05 00:08:09;;;;;;;23.50;13.03;;;;;;;;;;4998711;28;20207;-68
2022/03/05 00:10:35;;;;;;;22.50;12.83;;;;;;;;;;4983814;28;20800;-69
2022/03/05 00:13:01;;;;;;;20.63;12.70;;;;;;;;;;4969397;28;20201;-67
2022/03/05 00:15:28;;;;;;;21.77;12.60;;;;;;;;;;4964802;28;20286;-68
2022/03/05 00:17:54;;;;;;;20.80;13.03;;;;;;;;;;4973256;28;20190;-68
2022/03/05 00:20:20;;;;;;;21.07;12.83;;;;;;;;;;4969481;28;20205;-68
2022/03/05 00:22:47;;;;;;;22.97;13.37;;;;;;;;;;4984284;28;20193;-68
2022/03/05 00:25:12;;;;;;;23.23;13.87;;;;;;;;;;4985726;28;20238;-68
2022/03/05 00:27:39;;;;;;;21.53;13.10;;;;;;;;;;4986432;28;20204;-68
2022/03/05 00:30:05;;;;;;;22.10;12.97;;;;;;;;;;4983032;28;21901;-67
2022/03/05 00:32:31;;;;;;;23.67;13.30;;;;;;;;;;4972584;28;20236;-69
2022/03/05 00:34:57;;;;;;;22.27;13.50;;;;;;;;;;4996312;28;20205;-68
2022/03/05 00:37:23;;;;;;;23.97;14.67;;;;;;;;;;4981468;28;20223;-68
2022/03/05 00:39:49;;;;;;;24.87;14.37;;;;;;;;;;4979603;28;20197;-68
2022/03/05 00:42:15;;;;;;;23.80;13.63;;;;;;;;;;4982059;28;21221;-68
2022/03/05 00:44:41;;;;;;;25.83;14.47;;;;;;;;;;4966421;28;22440;-68
2022/03/05 00:47:07;;;;;;;23.97;14.47;;;;;;;;;;4971688;28;20650;-68
2022/03/05 00:49:33;;;;;;;21.77;13.53;;;;;;;;;;4970110;28;20216;-69
2022/03/05 00:51:59;;;;;;;26.57;14.87;;;;;;;;;;4984201;28;20824;-67
2022/03/05 00:54:25;;;;;;;24.33;14.17;;;;;;;;;;4986575;28;20235;-68
2022/03/05 00:56:50;;;;;;;27.20;15.07;;;;;;;;;;4984929;28;20217;-68
2022/03/05 00:59:16;;;;;;;26.57;15.40;;;;;;;;;;4989344;28;20205;-68
2022/03/05 01:01:42;;;;;;;27.30;15.63;;;;;;;;;;4996332;28;20192;-68
2022/03/05 01:04:08;;;;;;;28.13;15.57;;;;;;;;;;4980488;28;20246;-69
2022/03/05 01:06:35;;;;;;;28.30;14.87;;;;;;;;;;4998791;28;20209;-68
2022/03/05 01:09:01;;;;;;;26.30;15.70;;;;;;;;;;4987084;28;20280;-68
2022/03/05 01:11:27;;;;;;;30.87;16.57;;;;;;;;;;4995108;28;20232;-69
2022/03/05 01:13:53;;;;;;;31.83;15.37;;;;;;;;;;4989251;28;20222;-68
2022/03/05 01:16:19;;;;;;;28.17;15.77;;;;;;;;;;4978129;28;20701;-69
2022/03/05 01:18:45;;;;;;;31.20;16.47;;;;;;;;;;4973484;28;20268;-68
2022/03/05 01:21:11;;;;;;;30.73;16.40;;;;;;;;;;4988226;28;20227;-68
2022/03/05 01:23:37;;;;;;;29.00;16.37;;;;;;;;;;4970937;28;20575;-68
2022/03/05 01:26:11;;;;;;;31.30;16.67;;;;;;;;;;5001956;28;20721;-56
2022/03/05 01:28:37;;;;;;;31.60;17.07;;;;;;;;;;5004358;28;20188;-56
2022/03/05 01:31:03;;;;;;;31.13;17.03;;;;;;;;;;5007214;28;20223;-56
2022/03/05 01:33:29;;;;;;;31.23;17.30;;;;;;;;;;4999089;28;20211;-56
2022/03/05 01:35:55;;;;;;;30.10;16.77;;;;;;;;;;5000654;28;20323;-56
2022/03/05 01:38:20;;;;;;;30.77;17.17;;;;;;;;;;5001347;28;20781;-56
2022/03/05 01:40:47;;;;;;;31.80;16.97;;;;;;;;;;5007127;28;20278;-56
2022/03/05 01:43:12;;;;;;;31.77;17.27;;;;;;;;;;5004753;28;20258;-56
2022/03/05 01:45:38;;;;;;;31.97;17.50;;;;;;;;;;5001572;28;20211;-56
2022/03/05 01:48:05;;;;;;;32.57;17.67;;;;;;;;;;5007950;28;20199;-56
2022/03/05 01:50:31;;;;;;;33.63;16.90;;;;;;;;;;5003131;28;20197;-56
2022/03/05 01:52:57;;;;;;;31.37;17.07;;;;;;;;;;5008043;28;20251;-56
2022/03/05 01:55:23;;;;;;;33.73;17.47;;;;;;;;;;5004296;28;20707;-56
2022/03/05 01:57:49;;;;;;;31.27;16.97;;;;;;;;;;5005402;28;20729;-56
2022/03/05 02:00:15;;;;;;;32.60;17.07;;;;;;;;;;5002388;28;20274;-56
2022/03/05 02:02:44;;;;;;;29.23;15.83;;;;;;;;;;4999956;28;20225;-56
2022/03/05 02:05:10;;;;;;;34.23;17.73;;;;;;;;;;5001166;28;20274;-55
2022/03/05 02:07:36;;;;;;;31.23;16.93;;;;;;;;;;5001280;28;20284;-56
2022/03/05 02:10:03;;;;;;;30.77;16.43;;;;;;;;;;5002197;28;20301;-55
2022/03/05 02:12:30;;;;;;;29.70;16.20;;;;;;;;;;5002052;28;20200;-56
2022/03/05 02:14:56;;;;;;;32.20;16.97;;;;;;;;;;4991223;28;20294;-56
2022/03/05 02:17:22;;;;;;;35.43;17.87;;;;;;;;;;5001702;28;20578;-56
2022/03/05 02:19:48;;;;;;;33.20;17.60;;;;;;;;;;5004751;28;20204;-55
2022/03/05 02:22:14;;;;;;;34.23;18.77;;;;;;;;;;5006045;28;21796;-56
2022/03/05 02:24:40;;;;;;;34.03;17.87;;;;;;;;;;5007903;28;20257;-55
2022/03/05 02:27:06;;;;;;;30.27;16.67;;;;;;;;;;5006541;28;20192;-56
2022/03/05 02:29:32;;;;;;;34.97;18.27;;;;;;;;;;5013586;28;20857;-56
2022/03/05 02:31:58;;;;;;;35.97;17.70;;;;;;;;;;5005282;28;20193;-56
2022/03/05 02:34:24;;;;;;;35.67;18.43;;;;;;;;;;5004568;28;20237;-56
2022/03/05 02:36:50;;;;;;;36.90;19.30;;;;;;;;;;5000179;28;20874;-56
2022/03/05 02:39:16;;;;;;;34.63;18.63;;;;;;;;;;4990763;28;20271;-55
2022/03/05 02:41:42;;;;;;;32.20;17.27;;;;;;;;;;4997681;28;20204;-56
2022/03/05 02:44:09;;;;;;;34.00;17.67;;;;;;;;;;5004138;28;20725;-55
2022/03/05 02:46:35;;;;;;;34.63;19.00;;;;;;;;;;4996536;28;20205;-56
2022/03/05 02:49:01;;;;;;;38.20;19.60;;;;;;;;;;4996878;28;20359;-56
2022/03/05 02:51:27;;;;;;;33.33;18.80;;;;;;;;;;4991396;28;20295;-55
2022/03/05 02:53:53;;;;;;;35.90;18.87;;;;;;;;;;4997092;28;20582;-55
2022/03/05 02:56:19;;;;;;;36.03;18.23;;;;;;;;;;4997760;28;20197;-55
2022/03/05 02:58:45;;;;;;;34.93;17.47;;;;;;;;;;4996464;28;20236;-55
2022/03/05 03:01:11;;;;;;;33.30;18.87;;;;;;;;;;4993026;28;20232;-55
2022/03/05 03:03:37;;;;;;;39.10;17.30;;;;;;;;;;4993119;28;20184;-56
2022/03/05 03:06:02;;;;;;;34.53;18.70;;;;;;;;;;4995401;28;20223;-55
2022/03/05 03:08:28;;;;;;;35.20;17.33;;;;;;;;;;4993267;28;20565;-55
2022/03/05 03:10:54;;;;;;;35.13;18.70;;;;;;;;;;4994436;28;20271;-56
2022/03/05 03:13:20;;;;;;;33.67;19.07;;;;;;;;;;4994660;28;20919;-56
2022/03/05 03:15:46;;;;;;;35.47;18.23;;;;;;;;;;4997072;28;20228;-56
2022/03/05 03:18:12;;;;;;;38.60;19.97;;;;;;;;;;4992530;28;20237;-55
2022/03/05 03:20:38;;;;;;;41.53;20.17;;;;;;;;;;4998621;28;20197;-56
2022/03/05 03:23:04;;;;;;;37.47;18.90;;;;;;;;;;4997082;28;20211;-55
2022/03/05 03:25:30;;;;;;;34.10;18.67;;;;;;;;;;4994020;28;20240;-56
2022/03/05 03:27:56;;;;;;;34.70;18.73;;;;;;;;;;4992549;28;20258;-55
2022/03/05 03:30:22;;;;;;;40.17;19.20;;;;;;;;;;4993341;28;20347;-55
2022/03/05 03:32:48;;;;;;;39.23;21.10;;;;;;;;;;4990399;28;21032;-56
2022/03/05 03:35:14;;;;;;;38.50;20.17;;;;;;;;;;4992545;28;20283;-55
2022/03/05 03:37:40;;;;;;;40.17;19.83;;;;;;;;;;4992489;28;20201;-56
2022/03/05 03:40:07;;;;;;;37.67;19.83;;;;;;;;;;4993942;28;20189;-56
2022/03/05 03:42:33;;;;;;;39.70;19.60;;;;;;;;;;4994546;28;20201;-56
2022/03/05 03:44:59;;;;;;;38.93;19.63;;;;;;;;;;5004898;28;20597;-55
2022/03/05 03:47:25;;;;;;;36.73;19.73;;;;;;;;;;5001959;28;20267;-55
2022/03/05 03:49:51;;;;;;;35.37;18.67;;;;;;;;;;4999448;28;20192;-55
2022/03/05 03:52:17;;;;;;;40.03;19.80;;;;;;;;;;5001362;28;20193;-55
2022/03/05 03:54:44;;;;;;;37.47;19.50;;;;;;;;;;5003914;28;20830;-55
2022/03/05 03:57:09;;;;;;;38.97;20.07;;;;;;;;;;4995449;28;20201;-55
2022/03/05 03:59:35;;;;;;;39.77;19.00;;;;;;;;;;5002111;28;21054;-55
2022/03/05 04:02:02;;;;;;;33.23;18.17;;;;;;;;;;4995478;28;21213;-55
2022/03/05 04:04:28;;;;;;;36.73;18.73;;;;;;;;;;4995494;28;20240;-55
2022/03/05 04:09:39;;;;;;;37.30;19.67;;;;;;;;;;4992202;28;20784;-55
2022/03/05 04:12:05;;;;;;;40.13;19.57;;;;;;;;;;4991649;28;20617;-55
2022/03/05 04:14:31;;;;;;;37.50;19.37;;;;;;;;;;4997515;28;20201;-55
2022/03/05 04:16:57;;;;;;;37.47;19.07;;;;;;;;;;4997895;28;20198;-55
2022/03/05 04:19:23;;;;;;;40.27;20.07;;;;;;;;;;4998970;28;20255;-55
2022/03/05 04:21:49;;;;;;;37.20;18.37;;;;;;;;;;4998064;28;20196;-55
2022/03/05 04:24:15;;;;;;;34.90;18.37;;;;;;;;;;4996732;28;20312;-55
2022/03/05 04:26:41;;;;;;;35.77;18.70;;;;;;;;;;4995414;28;20231;-55
2022/03/05 04:29:07;;;;;;;36.17;18.00;;;;;;;;;;4996929;28;20264;-55
2022/03/05 04:31:33;;;;;;;34.27;18.57;;;;;;;;;;4991922;28;20663;-55
2022/03/05 04:33:59;;;;;;;37.43;18.77;;;;;;;;;;4992431;28;22552;-55
2022/03/05 04:36:25;;;;;;;34.57;18.17;;;;;;;;;;4986997;28;20193;-55
2022/03/05 04:38:51;;;;;;;35.50;17.80;;;;;;;;;;4986834;28;20192;-55
2022/03/05 04:41:17;;;;;;;33.90;18.10;;;;;;;;;;4987444;28;20280;-54
2022/03/05 04:43:43;;;;;;;39.77;18.80;;;;;;;;;;4989288;28;20315;-55
2022/03/05 04:46:09;;;;;;;37.00;19.53;;;;;;;;;;4992341;28;20571;-55
2022/03/05 04:48:34;;;;;;;38.63;19.33;;;;;;;;;;4998748;28;20188;-55
2022/03/05 04:51:00;;;;;;;36.03;17.73;;;;;;;;;;4993050;28;20197;-55
2022/03/05 04:53:26;;;;;;;39.03;18.77;;;;;;;;;;4995157;28;20210;-55
2022/03/05 04:55:52;;;;;;;40.03;19.27;;;;;;;;;;4989105;28;20237;-55
2022/03/05 04:58:18;;;;;;;34.73;18.77;;;;;;;;;;4988529;28;20632;-55
2022/03/05 05:00:44;;;;;;;36.13;17.97;;;;;;;;;;4993098;28;20662;-55
2022/03/05 05:03:10;;;;;;;36.03;17.87;;;;;;;;;;4992330;28;20285;-55
2022/03/05 05:05:36;;;;;;;36.17;18.60;;;;;;;;;;4994990;28;20259;-55
2022/03/05 05:08:02;;;;;;;40.17;18.27;;;;;;;;;;4995725;28;20204;-55
2022/03/05 05:10:28;;;;;;;39.13;20.17;;;;;;;;;;4989416;28;20234;-55
2022/03/05 05:12:54;;;;;;;35.03;19.07;;;;;;;;;;4999530;28;20279;-55
2022/03/05 05:15:20;;;;;;;39.03;20.13;;;;;;;;;;4992247;28;20289;-54
2022/03/05 05:17:46;;;;;;;35.77;18.27;;;;;;;;;;4990906;28;20203;-55
2022/03/05 05:20:12;;;;;;;37.50;19.10;;;;;;;;;;4990606;28;20200;-55
2022/03/05 05:22:38;;;;;;;36.10;18.93;;;;;;;;;;4990893;28;20433;-55
2022/03/05 05:25:04;;;;;;;38.47;19.73;;;;;;;;;;4990190;28;20270;-55
2022/03/05 05:27:34;;;;;;;39.53;19.80;;;;;;;;;;4989000;28;20204;-55
2022/03/05 05:30:00;;;;;;;40.07;20.43;;;;;;;;;;4990972;28;20227;-55
2022/03/05 05:32:26;;;;;;;34.13;18.80;;;;;;;;;;4990874;28;20193;-55
2022/03/05 05:34:52;;;;;;;35.73;18.97;;;;;;;;;;4990968;28;20395;-55
2022/03/05 05:37:18;;;;;;;36.40;19.53;;;;;;;;;;4991843;28;20193;-55
2022/03/05 05:39:44;;;;;;;35.30;19.40;;;;;;;;;;4988744;28;20659;-55
2022/03/05 05:42:10;;;;;;;37.23;19.37;;;;;;;;;;4987018;28;20206;-55
2022/03/05 05:44:36;;;;;;;35.13;18.80;;;;;;;;;;4989038;28;20228;-55
2022/03/05 05:47:02;;;;;;;39.83;19.93;;;;;;;;;;4989532;28;20727;-55
2022/03/05 05:49:28;;;;;;;36.20;18.37;;;;;;;;;;4993720;28;20665;-55
2022/03/05 05:51:54;;;;;;;37.53;18.70;;;;;;;;;;4992911;28;20192;-55
2022/03/05 05:54:20;;;;;;;39.60;19.03;;;;;;;;;;4995174;28;20200;-55
2022/03/05 05:56:46;;;;;;;31.70;17.43;;;;;;;;;;4987228;28;20205;-55
2022/03/05 05:59:12;;;;;;;33.60;16.93;;;;;;;;;;4987225;28;20203;-54
2022/03/05 06:01:39;;;;;;;37.77;17.80;;;;;;;;;;4980746;28;20437;-55
2022/03/05 06:04:05;;;;;;;34.87;17.30;;;;;;;;;;4989665;28;20721;-55
2022/03/05 06:06:31;;;;;;;37.00;17.60;;;;;;;;;;4987845;28;20406;-55
2022/03/05 06:08:56;;;;;;;38.53;17.00;;;;;;;;;;4991103;28;21123;-55
2022/03/05 06:11:22;;;;;;;35.13;18.27;;;;;;;;;;4990705;28;20203;-55
2022/03/05 06:13:48;;;;;;;32.97;16.47;;;;;;;;;;4991193;28;20196;-55
2022/03/05 06:16:14;;;;;;;35.43;16.93;;;;;;;;;;4984321;28;20717;-54
2022/03/05 06:18:40;;;;;;;36.07;17.10;;;;;;;;;;4989835;28;20240;-55
2022/03/05 06:21:06;;;;;;;34.50;17.13;;;;;;;;;;4995045;28;20204;-55
2022/03/05 06:23:33;;;;;;;31.83;16.03;;;;;;;;;;4997956;28;20204;-55
2022/03/05 06:25:58;;;;;;;37.23;17.97;;;;;;;;;;4997070;28;20241;-55
2022/03/05 06:28:24;;;;;;;34.10;17.20;;;;;;;;;;4997786;28;20666;-55
2022/03/05 06:30:50;;;;;;;32.80;17.43;;;;;;;;;;4989982;28;20247;-55
2022/03/05 06:33:16;;;;;;;37.07;16.83;;;;;;;;;;4990983;28;20207;-55
2022/03/05 06:35:42;;;;;;;30.00;15.40;;;;;;;;;;4992406;28;20254;-55
2022/03/05 06:38:08;;;;;;;34.97;17.87;;;;;;;;;;4989080;28;20205;-55
2022/03/05 06:40:34;;;;;;;34.40;16.43;;;;;;;;;;4991607;28;20197;-55
2022/03/05 06:43:00;;;;;;;30.93;16.37;;;;;;;;;;4987772;28;20780;-56
2022/03/05 06:45:26;;;;;;;35.27;18.27;;;;;;;;;;4995378;28;20337;-55
2022/03/05 06:47:52;;;;;;;33.87;16.43;;;;;;;;;;4992854;28;20198;-55
2022/03/05 06:50:18;;;;;;;31.37;16.33;;;;;;;;;;4994875;28;20236;-55
2022/03/05 06:52:44;;;;;;;34.63;16.30;;;;;;;;;;4996946;28;20192;-56
2022/03/05 06:55:14;;;;;;;34.90;17.23;;;;;;;;;;4999064;28;20671;-55
2022/03/05 06:57:40;;;;;;;29.93;16.27;;;;;;;;;;4998377;28;20273;-55
2022/03/05 07:00:06;;;;;;;41.53;17.53;;;;;;;;;;4989438;28;20721;-60
2022/03/05 07:02:32;;;;;;;37.03;17.37;;;;;;;;;;4989306;28;20215;-61
2022/03/05 07:04:58;;;;;;;31.13;15.33;;;;;;;;;;4995874;28;20334;-57
2022/03/05 07:07:24;;;;;;;29.23;13.63;;;;;;;;;;5000074;28;20196;-57
2022/03/05 07:09:51;;;;;;;27.73;15.13;;;;;;;;;;4991943;28;20811;-55
2022/03/05 07:12:17;;;;;;;38.20;19.33;;;;;;;;;;5003876;28;20713;-61
2022/03/05 07:14:48;;;;;;;35.60;18.30;;;;;;;;;;5002651;28;20634;-59
2022/03/05 07:17:15;;;;;;;38.77;18.03;;;;;;;;;;5007210;28;20276;-59
2022/03/05 07:19:41;;;;;;;38.50;19.03;;;;;;;;;;4999843;28;20225;-64
2022/03/05 07:22:07;;;;;;;38.93;17.83;;;;;;;;;;5002277;28;20307;-63
2022/03/05 07:24:33;;;;;;;34.47;17.83;;;;;;;;;;5000731;28;20359;-63
2022/03/05 07:26:58;;;;;;;41.00;18.77;;;;;;;;;;5002577;28;20197;-59
2022/03/05 07:29:24;;;;;;;34.10;16.67;;;;;;;;;;4991621;28;21854;-57
2022/03/05 07:31:50;;;;;;;35.20;17.67;;;;;;;;;;5008718;28;20196;-56
2022/03/05 07:34:16;;;;;;;36.57;18.43;;;;;;;;;;5010499;28;20609;-59
2022/03/05 07:36:42;;;;;;;37.47;17.40;;;;;;;;;;4990969;28;20880;-59
2022/03/05 07:39:08;;;;;;;38.00;19.20;;;;;;;;;;4991483;28;20299;-60
2022/03/05 07:41:36;;;;;;;33.07;17.23;;;;;;;;;;5001845;28;20255;-59
2022/03/05 07:44:02;;;;;;;32.37;16.33;;;;;;;;;;4999041;28;21046;-59
2022/03/05 07:46:28;;;;;;;36.97;18.33;;;;;;;;;;5000891;28;20181;-59
2022/03/05 07:48:54;;;;;;;37.33;18.40;;;;;;;;;;5004008;28;20193;-59
2022/03/05 07:51:20;;;;;;;33.07;17.10;;;;;;;;;;5003964;28;20603;-57
2022/03/05 07:53:46;;;;;;;38.30;18.97;;;;;;;;;;4997401;28;20807;-60
2022/03/05 07:56:12;;;;;;;34.63;16.83;;;;;;;;;;5005783;28;20700;-59
2022/03/05 07:58:38;;;;;;;34.60;18.40;;;;;;;;;;4995877;28;20220;-58
2022/03/05 08:01:03;;;;;;;33.53;17.47;;;;;;;;;;4994917;28;20192;-58
2022/03/05 08:03:29;;;;;;;34.50;18.07;;;;;;;;;;5001366;28;20655;-59
2022/03/05 08:05:56;;;;;;;35.07;18.70;;;;;;;;;;5000071;28;20212;-59
2022/03/05 08:08:22;;;;;;;35.90;18.93;;;;;;;;;;4998001;28;20284;-58
2022/03/05 08:10:48;;;;;;;33.60;17.73;;;;;;;;;;4999862;28;20316;-58
2022/03/05 08:13:14;;;;;;;36.83;17.80;;;;;;;;;;4997530;28;20487;-59
2022/03/05 08:15:40;;;;;;;29.03;16.67;;;;;;;;;;5001458;28;20224;-58
2022/03/05 08:18:06;;;;;;;33.00;15.50;;;;;;;;;;4994653;28;20197;-58
2022/03/05 08:20:32;;;;;;;32.17;15.80;;;;;;;;;;5000530;28;20654;-58
2022/03/05 08:22:58;;;;;;;33.53;18.07;;;;;;;;;;5003326;28;20224;-59
2022/03/05 08:25:24;;;;;;;34.77;17.50;;;;;;;;;;5004453;28;20241;-59
2022/03/05 08:27:50;;;;;;;35.13;17.40;;;;;;;;;;5001919;28;20194;-59
2022/03/05 08:30:16;;;;;;;32.80;16.03;;;;;;;;;;5003777;28;20210;-59
2022/03/05 08:32:42;;;;;;;28.40;16.43;;;;;;;;;;5002815;28;20721;-59
2022/03/05 08:35:09;;;;;;;31.77;16.50;;;;;;;;;;5003235;28;20663;-59
2022/03/05 08:37:35;;;;;;;31.27;17.57;;;;;;;;;;5001313;28;20214;-59
2022/03/05 08:40:01;;;;;;;28.33;15.90;;;;;;;;;;5002954;28;20600;-59
2022/03/05 08:42:27;;;;;;;31.10;16.80;;;;;;;;;;5002280;28;20742;-59
2022/03/05 08:44:53;;;;;;;28.77;17.03;;;;;;;;;;5000962;28;20217;-59
2022/03/05 08:47:19;;;;;;;33.20;18.20;;;;;;;;;;5002653;28;20275;-59
2022/03/05 08:49:45;;;;;;;29.33;17.93;;;;;;;;;;4999136;28;20237;-59
2022/03/05 08:52:11;;;;;;;30.27;18.37;;;;;;;;;;5005589;28;20204;-59
2022/03/05 08:54:37;;;;;;;30.30;18.17;;;;;;;;;;5004726;28;20201;-59
2022/03/05 08:57:03;;;;;;;29.27;18.13;;;;;;;;;;5001120;28;20221;-59
2022/03/05 08:59:29;;;;;;;31.07;18.27;;;;;;;;;;5004751;28;20196;-59
2022/03/05 09:01:55;;;;;;;27.47;17.37;;;;;;;;;;4997970;28;20986;-59
2022/03/05 09:04:21;;;;;;;29.77;17.63;;;;;;;;;;4982079;28;20801;-58
2022/03/05 09:06:47;;;;;;;29.00;17.17;;;;;;;;;;4999050;28;20186;-59
2022/03/05 09:09:13;;;;;;;29.57;18.37;;;;;;;;;;4999914;28;20803;-59
2022/03/05 09:11:39;;;;;;;28.67;18.13;;;;;;;;;;5004201;28;20257;-58
2022/03/05 09:14:05;;;;;;;29.33;17.83;;;;;;;;;;4997218;28;20196;-58
2022/03/05 09:16:31;;;;;;;26.73;16.80;;;;;;;;;;5000407;28;20232;-59
2022/03/05 09:18:57;;;;;;;26.43;17.40;;;;;;;;;;4995308;28;20789;-60
2022/03/05 09:21:23;;;;;;;25.10;17.03;;;;;;;;;;4999106;28;20196;-58
2022/03/05 09:23:49;;;;;;;26.53;17.30;;;;;;;;;;4994074;28;20196;-58
2022/03/05 09:26:15;;;;;;;28.10;18.13;;;;;;;;;;4999869;28;20228;-59
2022/03/05 09:28:41;;;;;;;27.17;17.70;;;;;;;;;;4997692;28;20235;-59
2022/03/05 09:31:07;;;;;;;23.77;16.27;;;;;;;;;;5004667;28;20197;-59
2022/03/05 09:33:33;;;;;;;37.60;18.30;;;;;;;;;;4997251;28;20669;-61
2022/03/05 09:35:59;;;;;;;25.33;17.17;;;;;;;;;;4998312;28;20196;-61
2022/03/05 09:38:25;;;;;;;27.97;17.40;;;;;;;;;;4995195;28;20332;-64
2022/03/05 09:40:51;;;;;;;28.33;17.73;;;;;;;;;;4999761;28;20196;-63
2022/03/05 09:43:20;;;;;;;27.63;18.00;;;;;;;;;;4997586;28;20709;-63
2022/03/05 09:45:46;;;;;;;24.57;17.27;;;;;;;;;;4998124;28;20220;-60
2022/03/05 09:48:15;;;;;;;25.70;17.07;;;;;;;;;;5003308;28;20263;-61
2022/03/05 09:50:41;;;;;;;24.87;16.47;;;;;;;;;;5007401;28;20996;-60
2022/03/05 09:53:07;;;;;;;23.57;15.63;;;;;;;;;;5005570;28;20497;-60
2022/03/05 09:55:33;;;;;;;24.70;15.80;;;;;;;;;;5000724;28;20192;-61
2022/03/05 09:57:59;;;;;;;22.50;15.57;;;;;;;;;;4995476;28;20268;-61
2022/03/05 10:00:25;;;;;;;22.87;15.73;;;;;;;;;;4998423;28;20201;-60
2022/03/05 10:02:51;;;;;;;28.53;15.53;;;;;;;;;;5002685;28;20201;-60
2022/03/05 10:05:17;;;;;;;24.07;15.30;;;;;;;;;;5006422;28;20255;-60
2022/03/05 10:08:00;;;;;;;22.70;14.73;;;;;;;;;;5002038;28;20641;-60
2022/03/05 10:10:26;;;;;;;21.53;15.03;;;;;;;;;;5006808;28;20646;-59
2022/03/05 10:12:52;;;;;;;18.60;13.90;;;;;;;;;;4991162;28;20220;-60
2022/03/05 10:15:18;;;;;;;21.67;15.10;;;;;;;;;;5002759;28;21070;-59
2022/03/05 10:17:50;;;;;;;20.83;14.63;;;;;;;;;;5004706;28;20193;-60
2022/03/05 10:20:16;;;;;;;20.63;14.53;;;;;;;;;;4997607;28;20674;-61
2022/03/05 10:22:50;;;;;;;20.10;14.63;;;;;;;;;;5002716;28;20686;-61
2022/03/05 10:25:16;;;;;;;17.87;13.77;;;;;;;;;;5002819;28;20338;-59
2022/03/05 10:27:42;;;;;;;19.87;14.83;;;;;;;;;;5002706;28;20189;-59
2022/03/05 10:30:09;;;;;;;20.03;13.40;;;;;;;;;;5000762;28;20201;-59
2022/03/05 10:32:36;;;;;;;17.90;14.43;;;;;;;;;;5000792;28;20197;-58
2022/03/05 10:35:02;;;;;;;18.27;13.40;;;;;;;;;;5000683;28;20205;-59
2022/03/05 10:37:28;;;;;;;17.40;13.87;;;;;;;;;;5003683;28;20231;-59
2022/03/05 10:39:54;;;;;;;17.73;12.50;;;;;;;;;;4998237;28;20538;-58
2022/03/05 10:42:26;;;;;;;17.87;13.27;;;;;;;;;;4986897;28;20231;-59
2022/03/05 10:45:08;;;;;;;17.70;12.43;;;;;;;;;;4996816;28;20239;-59
2022/03/05 10:47:41;;;;;;;19.33;13.07;;;;;;;;;;4996758;28;20197;-59
2022/03/05 10:50:27;;;;;;;16.73;12.37;;;;;;;;;;5001848;28;20204;-61
2022/03/05 10:52:54;;;;;;;17.58;12.35;;;;;;;;;;4991623;28;20553;-62
2022/03/05 10:55:21;;;;;;;18.20;12.63;;;;;;;;;;5002030;28;20225;-61
2022/03/05 10:57:57;;;;;;;17.27;13.15;;;;;;;;;;4995453;28;20201;-61
2022/03/05 11:00:23;;;;;;;17.25;11.73;;;;;;;;;;4999526;28;20201;-61
2022/03/05 11:02:50;;;;;;;18.73;14.43;;;;;;;;;;4991810;28;20688;-58
2022/03/05 11:05:17;;;;;;;17.83;13.57;;;;;;;;;;5000600;28;20578;-60
2022/03/05 11:07:43;;;;;;;17.88;13.20;;;;;;;;;;5003594;28;20193;-59
2022/03/05 11:10:09;;;;;;;15.00;12.50;;;;;;;;;;5004871;28;20185;-59
2022/03/05 11:12:35;;;;;;;15.73;12.32;;;;;;;;;;4996698;28;20193;-59
2022/03/05 11:15:01;;;;;;;15.90;11.55;;;;;;;;;;5001545;28;20938;-61
2022/03/05 11:17:27;;;;;;;13.10;10.93;;;;;;;;;;4998846;28;20650;-56
2022/03/05 11:19:53;;;;;;;17.30;11.88;;;;;;;;;;5002830;28;21007;-57
2022/03/05 11:22:19;;;;;;;18.20;11.25;;;;;;;;;;4992925;28;20638;-56
2022/03/05 11:24:45;;;;;;;13.20;10.98;;;;;;;;;;5002842;28;20243;-59
2022/03/05 11:27:14;;;;;;;12.25;10.75;;;;;;;;;;5000209;28;20726;-57
2022/03/05 11:29:56;;;;;;;14.27;11.68;;;;;;;;;;4995748;28;20189;-56
2022/03/05 11:32:22;;;;;;;14.13;11.73;;;;;;;;;;5000119;28;20193;-57
2022/03/05 11:34:52;;;;;;;13.65;10.50;;;;;;;;;;4991813;28;20541;-54
2022/03/05 11:37:23;;;;;;;16.05;11.27;;;;;;;;;;5003236;28;20204;-55
2022/03/05 11:39:49;;;;;;;13.85;11.30;;;;;;;;;;5016132;28;20659;-57
2022/03/05 11:42:26;;;;;;;12.82;10.43;;;;;;;;;;4995659;28;20564;-58
2022/03/05 11:44:52;;;;;;;12.10;9.70;;;;;;;;;;5001176;28;20252;-59
2022/03/05 11:47:18;;;;;;;14.88;10.38;;;;;;;;;;5000070;28;20619;-60
2022/03/05 11:49:59;;;;;;;14.50;10.50;;;;;;;;;;4994361;28;20700;-59
2022/03/05 11:52:41;;;;;;;14.15;9.75;;;;;;;;;;4998520;28;20552;-60
2022/03/05 11:55:16;;;;;;;12.35;10.40;;;;;;;;;;5001836;28;20221;-59
2022/03/05 11:57:42;;;;;;;11.60;9.48;;;;;;;;;;4998838;28;20192;-59
2022/03/05 12:00:09;;;;;;;10.00;8.60;;;;;;;;;;5002125;28;20627;-60
2022/03/05 12:02:45;;;;;;;11.20;9.68;;;;;;;;;;4994030;28;20232;-60
2022/03/05 12:05:12;;;;;;;14.15;8.30;;;;;;;;;;4996621;28;20278;-57
2022/03/05 12:07:41;;;;;;;11.13;9.00;;;;;;;;;;4988536;28;20914;-57
2022/03/05 12:10:14;;;;;;;12.35;9.68;;;;;;;;;;4996553;28;20668;-60
2022/03/05 12:12:52;;;;;;;15.23;9.35;;;;;;;;;;4996431;28;20225;-60
2022/03/05 12:15:18;;;;;;;16.33;11.68;;;;;;;;;;4998819;28;20200;-60
2022/03/05 12:17:45;;;;;;;12.52;9.85;;;;;;;;;;4998461;28;20657;-60
2022/03/05 12:20:13;;;;;;;15.40;9.45;;;;;;;;;;5001850;28;20181;-60
2022/03/05 12:22:49;;;;;;;11.57;8.07;;;;;;;;;;4999653;28;20193;-60
2022/03/05 12:25:15;;;;;;;10.23;8.40;;;;;;;;;;5004212;28;20321;-60
2022/03/05 12:27:46;;;;;;;11.40;8.25;;;;;;;;;;5004503;28;20276;-60
2022/03/05 12:30:12;;;;;;;13.65;9.13;;;;;;;;;;5005100;28;20279;-60
2022/03/05 12:32:41;;;;;;;12.00;8.13;;;;;;;;;;5005190;28;20228;-60
2022/03/05 12:35:07;;;;;;;8.98;7.38;;;;;;;;;;4996298;28;20285;-59
2022/03/05 12:37:33;;;;;;;12.38;8.30;;;;;;;;;;4997108;28;20220;-60
2022/03/05 12:39:59;;;;;;;9.48;7.88;;;;;;;;;;4999215;28;20204;-60
2022/03/05 12:42:34;;;;;;;10.27;7.85;;;;;;;;;;4998758;28;20202;-60
2022/03/05 12:45:00;;;;;;;15.60;8.20;;;;;;;;;;4994251;28;20216;-59
2022/03/05 12:47:35;;;;;;;10.02;8.48;;;;;;;;;;4993950;28;20203;-59
2022/03/05 12:50:20;;;;;;;9.75;7.65;;;;;;;;;;4991216;28;20228;-60
2022/03/05 12:53:00;;;;;;;12.18;10.15;;;;;;;;;;4995662;28;20201;-63
2022/03/05 12:55:50;;;;;;;10.85;9.70;;;;;;;;;;4989312;28;20201;-63
2022/03/05 12:58:17;;;;;;;12.80;11.20;;;;;;;;;;4992981;28;20216;-63
2022/03/05 13:00:46;;;;;;;13.93;11.30;;;;;;;;;;4996821;28;20204;-62
2022/03/05 13:03:12;;;;;;;15.02;12.48;;;;;;;;;;4998460;28;20200;-61
2022/03/05 13:05:38;;;;;;;12.60;10.70;;;;;;;;;;4992988;28;20835;-60
2022/03/05 13:08:05;;;;;;;13.60;10.55;;;;;;;;;;4997532;28;20221;-60
2022/03/05 13:10:30;;;;;;;13.95;12.18;;;;;;;;;;4998656;28;20255;-62
2022/03/05 13:12:56;;;;;;;13.52;10.02;;;;;;;;;;4999936;28;20201;-63
2022/03/05 13:15:32;;;;;;;12.00;10.00;;;;;;;;;;4996281;28;21311;-59
2022/03/05 13:18:08;;;;;;;10.88;8.43;;;;;;;;;;4998545;28;20198;-59
2022/03/05 13:20:34;;;;;;;9.43;7.93;;;;;;;;;;4999993;28;20778;-60
2022/03/05 13:23:00;;;;;;;9.13;8.13;;;;;;;;;;5000330;28;20459;-60
2022/03/05 13:25:28;;;;;;;10.18;9.15;;;;;;;;;;5001887;28;20726;-60
2022/03/05 13:27:54;;;;;;;13.45;11.20;;;;;;;;;;4997849;28;20212;-61
2022/03/05 13:30:21;;;;;;;12.07;10.77;;;;;;;;;;5002540;28;20188;-60
2022/03/05 13:32:47;;;;;;;14.40;12.27;;;;;;;;;;4994298;28;20251;-62
2022/03/05 13:35:13;;;;;;;17.73;13.13;;;;;;;;;;4997529;28;20189;-63
2022/03/05 13:37:45;;;;;;;10.82;9.73;;;;;;;;;;4999275;28;20201;-60
2022/03/05 13:40:11;;;;;;;13.18;9.93;;;;;;;;;;5000032;28;20196;-59
2022/03/05 13:42:38;;;;;;;13.20;11.23;;;;;;;;;;4990968;28;20701;-61
2022/03/05 13:45:07;;;;;;;10.90;9.02;;;;;;;;;;4997137;28;20300;-60
2022/03/05 13:47:32;;;;;;;18.48;10.63;;;;;;;;;;4991139;28;20203;-59
2022/03/05 13:50:02;;;;;;;11.55;9.13;;;;;;;;;;4996128;28;20197;-58
2022/03/05 13:52:31;;;;;;;11.02;9.13;;;;;;;;;;4997669;28;20204;-58
2022/03/05 13:55:05;;;;;;;26.75;9.45;;;;;;;;;;5003694;28;20657;-57
2022/03/05 13:57:32;;;;;;;12.57;10.63;;;;;;;;;;5000361;28;20208;-58
2022/03/05 14:00:08;;;;;;;33.47;12.60;;;;;;;;;;4994104;28;20759;-59
2022/03/05 14:02:34;;;;;;;21.73;12.48;;;;;;;;;;4996942;28;21138;-59
2022/03/05 14:05:01;;;;;;;15.23;12.60;;;;;;;;;;4994564;28;20296;-61
2022/03/05 14:07:28;;;;;;;12.63;9.57;;;;;;;;;;5000397;28;20528;-56
2022/03/05 14:09:55;;;;;;;11.50;8.80;;;;;;;;;;5003898;28;20204;-58
2022/03/05 14:12:28;;;;;;;16.70;7.93;;;;;;;;;;5001579;28;20224;-61
2022/03/05 14:14:56;;;;;;;12.52;7.05;;;;;;;;;;4999523;28;20205;-61
2022/03/05 14:17:35;;;;;;;10.00;8.23;;;;;;;;;;4998666;28;20447;-61
2022/03/05 14:20:19;;;;;;;10.90;9.13;;;;;;;;;;5001904;28;20200;-62